Time;durP1;ratioP1;P1;durP2;ratioP2;P2;SDS_P1;SDS_P2;PMS_P1;PMS_P2;Temp;Humidity;BMP_temperature;BMP_pressure;BME280_temperature;BME280_humidity;BME280_pressure;Samples;Min_cycle;Max_cycle;Signal;HPM_P1;HPM_P2
2022/05/17 00:02:09;;;;;;;7.93;3.22;;;;;;;-149.78;100.00;50320.84;5104313;27;20501;-73
2022/05/17 00:04:35;;;;;;;7.72;3.38;;;;;;;-149.78;100.00;50334.53;5086666;27;20486;-73
2022/05/17 00:07:02;;;;;;;11.70;3.42;;;;;;;-149.78;100.00;50295.44;5104178;27;20075;-73
2022/05/17 00:09:28;;;;;;;10.93;3.67;;;;;;;-149.78;100.00;50285.66;5122002;27;20035;-72
2022/05/17 00:11:56;;;;;;;12.52;3.75;;;;;;;-149.78;100.00;50291.50;5103737;27;20042;-73
2022/05/17 00:14:22;;;;;;;11.40;3.42;;;;;;;-149.78;100.00;50303.25;5122534;27;20474;-74
2022/05/17 00:16:48;;;;;;;15.85;3.50;;;;;;;-149.78;100.00;50322.81;5121811;27;20050;-73
2022/05/17 00:19:16;;;;;;;11.35;3.85;;;;;;;-149.78;100.00;50299.34;5103064;27;20038;-73
2022/05/17 00:21:44;;;;;;;18.02;4.00;;;;;;;-149.78;100.00;50287.59;5121077;27;20042;-73
2022/05/17 00:24:12;;;;;;;14.70;3.83;;;;;;;-149.78;100.00;50324.75;5123804;27;20477;-73
2022/05/17 00:26:38;;;;;;;8.68;4.03;;;;;;;-149.78;100.00;50311.06;5116915;27;20031;-73
2022/05/17 00:29:05;;;;;;;12.18;4.00;;;;;;;-149.78;100.00;50311.06;5106292;27;20035;-73
2022/05/17 00:31:31;;;;;;;9.90;3.45;;;;;;;-149.78;100.00;50295.44;5122164;27;20039;-73
2022/05/17 00:33:57;;;;;;;12.27;3.85;;;;;;;-149.78;100.00;50264.13;5103273;27;20039;-73
2022/05/17 00:36:23;;;;;;;13.85;3.75;;;;;;;-149.78;100.00;50307.16;5121578;27;20118;-73
2022/05/17 00:38:50;;;;;;;13.20;3.97;;;;;;;-149.78;100.00;50307.16;5103489;27;20122;-73
2022/05/17 00:41:16;;;;;;;9.80;3.92;;;;;;;-149.78;100.00;50318.91;5123639;27;20031;-79
2022/05/17 00:46:32;;;;;;;9.82;3.63;;;;;;;-149.78;100.00;50287.59;5109643;27;20062;-79
2022/05/17 00:48:59;;;;;;;8.88;3.83;;;;;;;-149.78;100.00;50336.50;5107225;27;20034;-80
2022/05/17 00:51:28;;;;;;;10.60;3.85;;;;;;;-149.78;100.00;50299.34;5106751;27;20027;-79
2022/05/17 00:54:08;;;;;;;12.65;4.50;;;;;;;-149.78;100.00;50311.06;5124793;27;20045;-79
2022/05/17 00:56:40;;;;;;;9.65;3.97;;;;;;;-149.78;100.00;50303.25;5106470;27;20039;-80
2022/05/17 00:59:08;;;;;;;;;;;;;;;-149.78;100.00;50318.91;5106447;27;20549;-79
2022/05/17 01:01:34;;;;;;;12.68;3.72;;;;;;;-149.78;100.00;50277.81;5106391;27;19920;-80
2022/05/17 01:04:05;;;;;;;11.23;4.10;;;;;;;-149.78;100.00;50350.19;5072667;27;20030;-79
2022/05/17 01:06:39;;;;;;;15.23;4.60;;;;;;;-149.78;100.00;50309.13;5123895;27;20058;-78
2022/05/17 01:09:05;;;;;;;10.93;4.30;;;;;;;-149.78;100.00;50326.72;5122884;27;20741;-79
2022/05/17 01:11:31;;;;;;;15.63;4.90;;;;;;;-149.78;100.00;50313.03;5104451;27;20367;-79
2022/05/17 01:16:42;;;;;;;10.73;5.57;;;;;;;-149.78;100.00;50314.97;5104794;27;20066;-79
2022/05/17 01:19:09;;;;;;;12.88;4.70;;;;;;;-149.78;100.00;50293.47;5088468;27;20027;-80
2022/05/17 01:21:36;;;;;;;10.93;4.47;;;;;;;-149.78;100.00;50322.81;5124572;27;20042;-79
2022/05/17 01:24:01;;;;;;;11.48;4.07;;;;;;;-149.78;100.00;50358.00;5105940;27;20035;-79
2022/05/17 01:26:30;;;;;;;21.52;4.43;;;;;;;-149.78;100.00;50377.56;5087808;27;20122;-79
2022/05/17 01:28:56;;;;;;;14.10;4.65;;;;;;;-149.78;100.00;50309.13;5124048;27;20031;-79
2022/05/17 01:31:21;;;;;;;14.93;4.43;;;;;;;-149.78;100.00;50332.59;5106329;27;20030;-80
2022/05/17 01:33:47;;;;;;;15.95;4.78;;;;;;;-149.78;100.00;50336.50;5089165;27;20035;-79
2022/05/17 01:36:15;;;;;;;15.25;5.05;;;;;;;-149.78;100.00;50346.28;5105441;27;20031;-79
2022/05/17 01:38:45;;;;;;;14.93;4.55;;;;;;;-149.78;100.00;50369.75;5105945;27;20030;-79
2022/05/17 01:41:11;;;;;;;12.82;4.45;;;;;;;-149.78;100.00;50373.66;5105280;27;20034;-79
2022/05/17 01:43:37;;;;;;;10.93;4.22;;;;;;;-149.78;100.00;50311.06;5123670;27;20131;-79
2022/05/17 01:46:06;;;;;;;12.27;5.05;;;;;;;-149.78;100.00;50346.28;5105385;27;20657;-79
2022/05/17 01:48:32;;;;;;;14.45;4.38;;;;;;;-149.78;100.00;50311.06;5105604;27;20034;-79
2022/05/17 01:50:58;;;;;;;15.30;4.28;;;;;;;-149.78;100.00;50342.38;5105966;27;20482;-79
2022/05/17 01:53:24;;;;;;;15.55;4.85;;;;;;;-149.78;100.00;50348.22;5105259;27;20126;-79
2022/05/17 01:55:49;;;;;;;10.57;4.30;;;;;;;-149.78;100.00;50361.91;5105388;27;20458;-79
2022/05/17 01:58:15;;;;;;;15.93;5.00;;;;;;;-149.78;100.00;50346.28;5070911;27;20500;-79
2022/05/17 02:00:41;;;;;;;17.40;4.68;;;;;;;-149.78;100.00;50395.16;5087763;27;20031;-79
2022/05/17 02:03:06;;;;;;;18.05;5.30;;;;;;;-149.78;100.00;50338.44;5070730;27;20649;-79
2022/05/17 02:05:32;;;;;;;11.88;4.10;;;;;;;-149.78;100.00;50361.91;5088089;27;20031;-79
2022/05/17 02:07:58;;;;;;;16.65;4.50;;;;;;;-149.78;100.00;50361.91;5087108;27;20704;-78
2022/05/17 02:10:27;;;;;;;17.60;4.97;;;;;;;-149.78;100.00;50369.75;5104916;27;20494;-78
2022/05/17 02:12:54;;;;;;;20.75;5.30;;;;;;;-149.78;100.00;50326.72;5123527;27;20043;-80
2022/05/17 02:15:20;;;;;;;13.85;4.60;;;;;;;-149.78;100.00;50322.81;5122816;27;20046;-78
2022/05/17 02:17:46;;;;;;;14.57;4.80;;;;;;;-149.78;100.00;50367.78;5071260;27;20062;-79
2022/05/17 02:20:12;;;;;;;9.25;4.38;;;;;;;-149.78;100.00;50338.44;5122061;27;20063;-79
2022/05/17 02:22:37;;;;;;;16.23;4.93;;;;;;;-149.78;100.00;50385.38;5087488;27;20482;-79
2022/05/17 02:25:04;;;;;;;22.35;5.85;;;;;;;-149.78;100.00;50359.97;5088243;27;20030;-79
2022/05/17 02:27:29;;;;;;;15.25;4.22;;;;;;;-149.78;100.00;50338.44;5104287;27;20489;-79
2022/05/17 02:29:55;;;;;;;16.45;5.10;;;;;;;-149.78;100.00;50326.72;5123562;27;20062;-79
2022/05/17 02:32:21;;;;;;;16.50;5.43;;;;;;;-149.78;100.00;50361.91;5123305;27;20095;-79
2022/05/17 02:34:47;;;;;;;17.13;4.97;;;;;;;-149.78;100.00;50338.44;5087396;27;20026;-79
2022/05/17 02:37:15;;;;;;;16.30;5.20;;;;;;;-149.78;100.00;50354.09;5104281;27;20450;-79
2022/05/17 02:39:42;;;;;;;17.08;5.82;;;;;;;-149.78;100.00;50338.44;5104406;27;20798;-78
2022/05/17 02:42:09;;;;;;;18.77;5.50;;;;;;;-149.78;100.00;50314.97;5123014;27;20058;-78
2022/05/17 02:44:34;;;;;;;18.23;5.53;;;;;;;-149.78;100.00;50324.75;5104344;28;20885;-79
2022/05/17 02:47:01;;;;;;;21.45;5.90;;;;;;;-149.78;100.00;50307.16;5086229;27;20043;-79
2022/05/17 02:49:27;;;;;;;16.92;5.30;;;;;;;-149.78;100.00;50332.59;5103735;28;20122;-79
2022/05/17 02:51:54;;;;;;;19.95;5.30;;;;;;;-149.78;100.00;50326.72;5122707;27;20472;-80
2022/05/17 02:54:21;;;;;;;16.13;5.40;;;;;;;-149.78;100.00;50350.19;5104477;28;20731;-78
2022/05/17 02:56:48;;;;;;;18.83;5.43;;;;;;;-149.78;100.00;50346.28;5103292;28;20035;-79
2022/05/17 02:59:18;;;;;;;13.05;5.30;;;;;;;-149.78;100.00;50326.72;5123009;28;20023;-78
2022/05/17 03:01:44;;;;;;;16.05;4.97;;;;;;;-149.78;100.00;50369.75;5104640;28;20121;-79
2022/05/17 03:04:13;;;;;;;19.90;5.68;;;;;;;-149.78;100.00;50326.72;5103755;28;20541;-79
2022/05/17 03:06:43;;;;;;;20.95;5.80;;;;;;;-149.78;100.00;50342.38;5122603;28;20461;-79
2022/05/17 03:09:10;;;;;;;21.73;5.80;;;;;;;-149.78;100.00;50342.38;5087741;28;20167;-79
2022/05/17 03:11:37;;;;;;;16.20;5.43;;;;;;;-149.78;100.00;50346.28;5104562;28;20027;-78
2022/05/17 03:14:03;;;;;;;23.02;5.50;;;;;;;-149.78;100.00;50348.22;5087349;28;20027;-80
2022/05/17 03:16:32;;;;;;;14.73;5.75;;;;;;;-149.78;100.00;50338.44;5122814;28;20026;-78
2022/05/17 03:18:59;;;;;;;16.20;5.13;;;;;;;-149.78;100.00;50354.09;5122852;28;20463;-79
2022/05/17 03:21:25;;;;;;;20.63;5.90;;;;;;;-149.78;100.00;50371.69;5104195;28;20084;-80
2022/05/17 03:23:51;;;;;;;14.60;6.40;;;;;;;-149.78;100.00;50330.63;5103433;28;20035;-80
2022/05/17 03:26:16;;;;;;;27.77;6.63;;;;;;;-149.78;100.00;50342.38;5098464;28;20046;-80
2022/05/17 03:28:42;;;;;;;20.38;5.65;;;;;;;-149.78;100.00;50346.28;5095415;28;20032;-80
2022/05/17 03:31:09;;;;;;;18.60;5.88;;;;;;;-149.78;100.00;50354.09;5113473;28;20035;-80
2022/05/17 03:33:35;;;;;;;23.30;5.80;;;;;;;-149.78;100.00;50358.00;5127792;27;20061;-80
2022/05/17 03:36:01;;;;;;;24.65;5.82;;;;;;;-149.78;100.00;50354.09;5091093;27;20115;-78
2022/05/17 03:38:26;;;;;;;17.85;6.40;;;;;;;-149.78;100.00;50377.56;5126487;27;20126;-79
2022/05/17 03:40:54;;;;;;;21.02;6.40;;;;;;;-149.78;100.00;50365.84;5107839;27;20023;-80
2022/05/17 03:43:20;;;;;;;20.48;6.35;;;;;;;-149.78;100.00;50336.50;5107935;27;20039;-78
2022/05/17 03:45:47;;;;;;;22.42;5.82;;;;;;;-149.78;100.00;50346.28;5108366;27;20084;-80
2022/05/17 03:48:13;;;;;;;19.88;6.90;;;;;;;-149.78;100.00;50309.13;5107554;27;20655;-80
2022/05/17 03:50:39;;;;;;;21.75;6.88;;;;;;;-149.78;100.00;50352.16;5107380;27;20027;-79
2022/05/17 03:53:05;;;;;;;26.40;6.82;;;;;;;-149.78;100.00;50328.69;5090301;27;20047;-80
2022/05/17 03:55:31;;;;;;;25.48;7.97;;;;;;;-149.78;100.00;50330.63;5107668;27;20599;-80
2022/05/17 03:57:57;;;;;;;32.67;9.05;;;;;;;-149.78;100.00;50342.38;5106790;27;20040;-79
2022/05/17 04:00:22;;;;;;;32.50;9.00;;;;;;;-149.78;100.00;50326.72;5126588;27;20414;-78
2022/05/17 04:02:49;;;;;;;24.63;9.07;;;;;;;-149.78;100.00;50365.84;5125353;27;20066;-79
2022/05/17 04:05:16;;;;;;;32.95;10.43;;;;;;;-149.78;100.00;50342.38;5107603;27;20175;-80
2022/05/17 04:07:42;;;;;;;34.53;11.55;;;;;;;-149.78;100.00;50369.75;5125107;27;20031;-80
2022/05/17 04:10:10;;;;;;;32.47;11.90;;;;;;;-149.78;100.00;50358.00;5125348;27;20520;-78
2022/05/17 04:12:36;;;;;;;33.55;12.38;;;;;;;-149.78;100.00;50338.44;5125926;27;20031;-79
2022/05/17 04:15:05;;;;;;;38.88;11.82;;;;;;;-149.78;100.00;50338.44;5125920;27;20508;-79
2022/05/17 04:17:31;;;;;;;29.38;11.68;;;;;;;-149.78;100.00;50346.28;5125898;27;20027;-80
2022/05/17 04:20:01;;;;;;;32.30;11.88;;;;;;;-149.78;100.00;50348.22;5125797;27;20038;-81
2022/05/17 04:22:26;;;;;;;28.45;11.20;;;;;;;-149.78;100.00;50358.00;5107109;27;20394;-79
2022/05/17 04:24:57;;;;;;;31.75;10.98;;;;;;;-149.78;100.00;50326.72;5107391;27;20054;-79
2022/05/17 04:27:24;;;;;;;35.33;11.13;;;;;;;-149.78;100.00;50369.75;5125303;27;20027;-81
2022/05/17 04:29:50;;;;;;;38.90;12.57;;;;;;;-149.78;100.00;50369.75;5125163;27;20110;-80
2022/05/17 04:32:16;;;;;;;30.83;11.48;;;;;;;-149.78;100.00;50361.91;5106489;27;20023;-79
2022/05/17 04:34:42;;;;;;;27.80;11.00;;;;;;;-149.78;100.00;50318.91;5125652;27;20083;-80
2022/05/17 04:37:08;;;;;;;36.70;12.05;;;;;;;-149.78;100.00;50334.53;5089123;27;20506;-80
2022/05/17 04:39:34;;;;;;;38.03;11.55;;;;;;;-149.78;100.00;50358.00;5106957;27;20375;-80
2022/05/17 04:42:00;;;;;;;30.92;11.98;;;;;;;-149.78;100.00;50365.84;5124890;27;20035;-79
2022/05/17 04:44:26;;;;;;;31.08;11.15;;;;;;;-149.78;100.00;50358.00;5124445;27;20043;-80
2022/05/17 04:46:52;;;;;;;27.30;10.52;;;;;;;-149.78;100.00;50322.81;5089563;27;20038;-80
2022/05/17 04:49:18;;;;;;;37.53;11.23;;;;;;;-149.78;100.00;50320.84;5106332;27;20035;-79
2022/05/17 04:51:44;;;;;;;29.52;10.65;;;;;;;-149.78;100.00;50352.16;5124999;27;20030;-80
2022/05/17 04:54:09;;;;;;;34.05;11.85;;;;;;;-149.78;100.00;50324.75;5072307;27;20051;-79
2022/05/17 04:56:35;;;;;;;32.78;11.98;;;;;;;-149.78;100.00;50299.34;5106042;27;20031;-80
2022/05/17 04:59:01;;;;;;;32.80;11.48;;;;;;;-149.78;100.00;50322.81;5125364;27;20126;-80
2022/05/17 05:01:27;;;;;;;30.70;12.35;;;;;;;-149.78;100.00;50326.72;5131055;27;20478;-81
2022/05/17 05:03:53;;;;;;;32.10;12.02;;;;;;;-149.78;100.00;50334.53;5109539;27;20098;-81
2022/05/17 05:06:19;;;;;;;39.33;11.20;;;;;;;-149.78;100.00;50338.44;5110028;27;20065;-79
2022/05/17 05:08:45;;;;;;;34.20;11.38;;;;;;;-149.78;100.00;50334.53;5092597;27;20041;-80
2022/05/17 05:11:10;;;;;;;36.15;12.48;;;;;;;-149.78;100.00;50314.97;5103416;27;20494;-81
2022/05/17 05:13:36;;;;;;;35.42;11.80;;;;;;;-149.78;100.00;50305.22;5109811;27;20039;-79
2022/05/17 05:16:02;;;;;;;35.95;12.15;;;;;;;-149.78;100.00;50334.53;5092818;27;20091;-79
2022/05/17 05:18:27;;;;;;;35.90;11.73;;;;;;;-149.78;100.00;50346.28;5128642;27;20111;-80
2022/05/17 05:21:09;;;;;;;31.00;12.23;;;;;;;-149.78;100.00;50369.75;5129555;27;20102;-80
2022/05/17 05:23:36;;;;;;;34.72;9.88;;;;;;;-149.78;100.00;50354.09;5092672;27;20034;-79
2022/05/17 05:26:02;;;;;;;31.35;10.52;;;;;;;-149.78;100.00;50334.53;5098950;28;20062;-80
2022/05/17 05:28:31;;;;;;;27.50;10.45;;;;;;;-149.78;100.00;50311.06;5115243;28;20088;-80
2022/05/17 05:30:57;;;;;;;28.02;9.45;;;;;;;-149.78;100.00;50338.44;5096946;28;20115;-80
2022/05/17 05:33:23;;;;;;;20.25;9.82;;;;;;;-149.78;100.00;50307.16;5115125;28;20042;-80
2022/05/17 05:35:50;;;;;;;30.05;10.38;;;;;;;-149.78;100.00;50322.81;5097036;28;20567;-81
2022/05/17 05:38:16;;;;;;;29.70;9.40;;;;;;;-149.78;100.00;50346.28;5097288;28;20114;-80
2022/05/17 05:40:41;;;;;;;23.58;8.95;;;;;;;-149.78;100.00;50340.41;5097063;28;20460;-81
2022/05/17 05:43:08;;;;;;;29.38;8.90;;;;;;;-149.78;100.00;50328.69;5096842;28;20508;-79
2022/05/17 05:45:34;;;;;;;21.38;7.60;;;;;;;-149.78;100.00;50328.69;5096795;28;20054;-80
2022/05/17 05:48:00;;;;;;;22.77;7.63;;;;;;;-149.78;100.00;50271.97;5115079;28;20482;-79
2022/05/17 05:50:27;;;;;;;22.80;7.97;;;;;;;-149.78;100.00;50330.63;5096656;28;20055;-79
2022/05/17 05:53:04;;;;;;;21.25;7.10;;;;;;;-149.78;100.00;50311.06;5091052;28;20445;-79
2022/05/17 05:55:31;;;;;;;26.70;7.85;;;;;;;-149.78;100.00;50318.91;5093321;28;20430;-79
2022/05/17 05:57:59;;;;;;;22.48;7.88;;;;;;;-149.78;100.00;50326.72;5096381;28;20051;-80
2022/05/17 06:00:25;;;;;;;20.67;7.47;;;;;;;-149.78;100.00;50350.19;5084274;28;20086;-80
2022/05/17 06:02:51;;;;;;;25.35;7.47;;;;;;;-149.78;100.00;50297.38;5099542;28;20039;-80
2022/05/17 06:05:18;;;;;;;19.35;6.35;;;;;;;-149.78;100.00;50303.25;5099983;28;20054;-79
2022/05/17 06:07:45;;;;;;;19.75;6.70;;;;;;;-149.78;100.00;50295.44;5105623;28;20122;-81
2022/05/17 06:10:12;;;;;;;19.88;6.70;;;;;;;-149.78;100.00;50275.88;5101898;28;20062;-80
2022/05/17 06:12:38;;;;;;;24.10;7.40;;;;;;;-149.78;100.00;50271.97;5102028;28;20024;-77
2022/05/17 06:15:04;;;;;;;15.15;6.60;;;;;;;-149.78;100.00;50260.22;5099665;28;20483;-78
2022/05/17 06:17:30;;;;;;;22.38;6.68;;;;;;;-149.78;100.00;50299.34;5112065;28;20077;-76
2022/05/17 06:19:57;;;;;;;16.67;5.57;;;;;;;-149.78;100.00;50314.97;5111274;28;20035;-76
2022/05/17 06:22:23;;;;;;;20.35;6.68;;;;;;;-149.78;100.00;50271.97;5107708;28;20024;-79
2022/05/17 06:24:49;;;;;;;18.90;5.68;;;;;;;-149.78;100.00;50270.00;5096646;28;20028;-79
2022/05/17 06:27:15;;;;;;;23.50;5.40;;;;;;;-149.78;100.00;50260.22;5105668;28;20471;-79
2022/05/17 06:29:40;;;;;;;21.85;5.45;;;;;;;-149.78;100.00;50264.13;5104267;28;20457;-77
2022/05/17 06:32:12;;;;;;;17.27;5.20;;;;;;;-149.78;100.00;50262.19;5099747;28;20032;-79
2022/05/17 06:34:38;;;;;;;23.60;5.13;;;;;;;-149.78;100.00;50246.53;5112634;28;20032;-80
2022/05/17 06:37:04;;;;;;;14.80;4.43;;;;;;;-149.78;100.00;50240.66;5107512;28;20028;-79
2022/05/17 06:39:30;;;;;;;16.02;4.80;;;;;;;-149.78;100.00;50211.34;5110094;28;20123;-82
2022/05/17 06:41:56;;;;;;;12.18;4.32;;;;;;;-149.78;100.00;50172.22;5110958;28;20032;-79
2022/05/17 06:44:21;;;;;;;11.85;4.38;;;;;;;-149.78;100.00;50195.69;5100780;28;20472;-78
2022/05/17 06:46:47;;;;;;;11.38;4.00;;;;;;;-149.78;100.00;50189.81;5094088;28;20040;-80
2022/05/17 06:49:13;;;;;;;16.20;4.13;;;;;;;-149.78;100.00;50185.91;5075744;28;20036;-79
2022/05/17 06:51:40;;;;;;;13.40;4.05;;;;;;;-149.78;100.00;50168.31;5092354;28;20042;-80
2022/05/17 06:54:06;;;;;;;16.58;4.00;;;;;;;-149.78;100.00;50189.81;5075261;28;20101;-80
2022/05/17 06:56:33;;;;;;;16.02;4.07;;;;;;;-149.78;100.00;50219.16;5076020;28;20036;-81
2022/05/17 06:58:59;;;;;;;16.23;4.82;;;;;;;-149.78;100.00;50185.91;5104605;28;20032;-78
2022/05/17 07:01:25;;;;;;;16.33;4.40;;;;;;;-149.78;100.00;50160.50;5102184;28;20077;-79
2022/05/17 07:03:51;;;;;;;11.52;4.18;;;;;;;-149.78;100.00;50131.16;5106049;28;20036;-81
2022/05/17 07:06:17;;;;;;;15.13;5.07;;;;;;;-149.78;100.00;50103.78;5096363;28;20036;-79
2022/05/17 07:08:43;;;;;;;12.05;3.85;;;;;;;-149.78;100.00;50123.34;5114682;28;20027;-80
2022/05/17 07:13:54;;;;;;;12.27;3.67;;;;;;;-149.78;100.00;50041.19;5117987;28;20479;-82
2022/05/17 07:16:21;;;;;;;10.32;3.53;;;;;;;-149.78;100.00;50031.41;5102947;28;20495;-79
2022/05/17 07:18:47;;;;;;;20.63;3.65;;;;;;;-149.78;100.00;49998.19;5104175;28;20032;-77
2022/05/17 07:21:13;;;;;;;13.10;3.20;;;;;;;-149.78;100.00;50045.09;5107570;28;20028;-80
2022/05/17 07:23:40;;;;;;;11.98;3.22;;;;;;;-149.78;100.00;50023.59;5106583;28;20042;-80
2022/05/17 07:26:11;;;;;;;11.15;3.40;;;;;;;-149.78;100.00;49998.19;5105293;28;20032;-80
2022/05/17 07:28:43;;;;;;;9.15;3.15;;;;;;;-149.78;100.00;50033.38;5096396;28;20038;-80
2022/05/17 07:31:09;;;;;;;17.75;3.13;;;;;;;-149.78;100.00;49998.19;5104039;28;20077;-82
2022/05/17 07:33:36;;;;;;;14.95;3.72;;;;;;;-149.78;100.00;50021.63;5109104;28;20027;-81
2022/05/17 07:36:03;;;;;;;11.45;3.42;;;;;;;-149.78;100.00;49939.50;5093001;28;20035;-82
2022/05/17 07:38:29;;;;;;;12.73;3.28;;;;;;;-149.78;100.00;49939.50;5108390;28;20123;-80
2022/05/17 07:40:55;;;;;;;11.85;3.38;;;;;;;-149.78;100.00;49955.16;5106865;28;20619;-79
2022/05/17 07:43:21;;;;;;;10.13;3.33;;;;;;;-149.78;91.51;49939.50;5116332;28;20036;-80
2022/05/17 07:45:49;;;;;;;10.43;3.17;;;;;;;-149.78;87.11;49951.25;5116288;28;20038;-80
2022/05/17 07:48:24;;;;;;;13.48;3.40;;;;;;;-149.78;82.24;49951.25;5089901;28;20371;-80
2022/05/17 07:50:50;;;;;;;12.07;3.17;;;;;;;-149.78;77.47;49931.69;5095559;28;20032;-79
2022/05/17 07:53:18;;;;;;;12.95;3.20;;;;;;;-149.78;77.32;49935.59;5078484;28;20055;-80
2022/05/17 07:55:46;;;;;;;12.18;3.47;;;;;;;-149.78;73.77;49925.81;5095596;28;20115;-79
2022/05/17 07:58:13;;;;;;;11.45;3.55;;;;;;;-149.78;75.87;49953.19;5096939;28;20031;-80
2022/05/17 08:00:40;;;;;;;8.88;3.30;;;;;;;-149.78;73.23;49919.94;5078630;28;20084;-79
2022/05/17 08:03:08;;;;;;;13.02;3.38;;;;;;;-149.78;71.41;49884.75;5078680;28;20058;-79
2022/05/17 08:05:35;;;;;;;12.50;2.85;;;;;;;-149.78;72.16;49951.25;5095718;28;20035;-79
2022/05/17 08:08:02;;;;;;;11.23;3.15;;;;;;;-149.78;65.94;49906.25;5081357;28;20095;-80
2022/05/17 08:10:30;;;;;;;12.18;3.72;;;;;;;-149.78;64.48;49880.84;5102046;28;20139;-80
2022/05/17 08:12:55;;;;;;;11.35;2.95;;;;;;;-149.78;62.08;49910.19;5100034;28;20051;-79
2022/05/17 08:15:23;;;;;;;9.93;2.92;;;;;;;-149.78;66.87;49900.41;5098701;28;20066;-81
2022/05/17 08:17:50;;;;;;;12.45;3.42;;;;;;;-149.78;59.48;49890.63;5094612;28;20418;-79
2022/05/17 08:20:18;;;;;;;11.45;3.40;;;;;;;-149.78;63.74;49904.31;5095337;28;20056;-76
2022/05/17 08:22:45;;;;;;;10.60;2.65;;;;;;;-149.78;58.98;49900.41;5106505;28;20039;-76
2022/05/17 08:27:59;;;;;;;10.20;2.72;;;;;;;-149.78;61.32;49918.00;5102433;28;20032;-76
2022/05/17 08:30:26;;;;;;;9.45;2.90;;;;;;;-149.78;59.86;49867.16;5113526;28;20104;-76
2022/05/17 08:33:16;;;;;;;9.93;3.13;;;;;;;-149.78;57.26;49865.19;5090119;28;20381;-76
2022/05/17 08:36:00;;;;;;;13.07;3.15;;;;;;;-149.78;56.37;49857.38;5081820;28;20027;-76
2022/05/17 08:38:38;;;;;;;10.32;2.80;;;;;;;-149.78;54.45;49853.47;5116090;28;20027;-77
2022/05/17 08:41:10;;;;;;;11.07;2.78;;;;;;;-149.78;49.41;49857.38;5114942;28;20108;-76
2022/05/17 08:43:57;;;;;;;12.23;3.00;;;;;;;-149.78;48.68;49863.25;5102384;28;20051;-76
2022/05/17 08:46:43;;;;;;;11.63;2.85;;;;;;;-149.78;47.68;49839.78;5095617;28;20032;-74
2022/05/17 08:49:22;;;;;;;9.00;2.97;;;;;;;-149.78;49.38;49837.81;5102713;28;20058;-78
2022/05/17 08:52:02;;;;;;;8.65;2.80;;;;;;;-149.78;49.92;49857.38;5112128;28;20032;-78
2022/05/17 08:54:38;;;;;;;8.68;2.58;;;;;;;-149.78;51.48;49880.84;5112296;28;20047;-78
2022/05/17 08:57:34;;;;;;;8.68;2.38;;;;;;;-149.78;50.23;49869.13;5108265;28;20098;-78
2022/05/17 09:00:12;;;;;;;11.07;2.85;;;;;;;-149.78;51.21;49904.31;5099569;28;20023;-76
2022/05/17 09:02:50;;;;;;;11.25;3.03;;;;;;;-149.78;44.90;49814.34;5104724;27;20032;-76
2022/05/17 09:05:37;;;;;;;7.95;2.78;;;;;;;-149.78;44.93;49814.34;5102673;28;20020;-76
2022/05/17 09:08:32;;;;;;;7.63;2.80;;;;;;;-149.78;47.87;49873.03;5091889;28;20467;-76
2022/05/17 09:11:07;;;;;;;9.00;2.70;;;;;;;-149.78;46.46;49798.72;5094238;28;20038;-76
2022/05/17 09:13:54;;;;;;;8.95;2.70;;;;;;;-149.78;47.97;49837.81;5093269;28;20370;-75
2022/05/17 09:16:23;;;;;;;7.28;2.45;;;;;;;-149.78;47.21;49837.81;5094777;28;20032;-75
2022/05/17 09:18:50;;;;;;;8.27;2.55;;;;;;;-149.78;47.86;49912.13;5094030;28;20409;-77
2022/05/17 09:21:34;;;;;;;6.68;2.60;;;;;;;-149.78;50.17;49916.03;5115077;28;20461;-76
2022/05/17 09:24:05;;;;;;;9.15;2.42;;;;;;;-149.78;50.09;49927.78;5114084;28;20023;-76
2022/05/17 09:26:31;;;;;;;7.85;2.83;;;;;;;-149.78;54.57;49927.78;5106541;28;20077;-75
2022/05/17 09:29:11;;;;;;;8.73;2.75;;;;;;;-149.78;52.26;49923.88;5091799;28;20567;-76
2022/05/17 09:31:37;;;;;;;11.32;3.05;;;;;;;-149.78;56.93;49939.50;5076137;28;20456;-75
2022/05/17 09:34:06;;;;;;;9.73;2.70;;;;;;;-149.78;54.57;49921.91;5094859;28;20062;-76
2022/05/17 09:36:46;;;;;;;11.38;2.65;;;;;;;-149.78;53.61;49939.50;5105717;28;20028;-75
2022/05/17 09:39:31;;;;;;;9.00;2.72;;;;;;;-149.78;54.49;49951.25;5115125;28;20055;-75
2022/05/17 09:42:02;;;;;;;9.50;3.00;;;;;;;-149.78;51.46;49861.28;5113944;28;20036;-77
2022/05/17 09:44:30;;;;;;;10.07;3.30;;;;;;;-149.78;49.46;49898.44;5113617;28;20471;-76
2022/05/17 09:46:59;;;;;;;11.38;2.80;;;;;;;-149.78;52.36;49912.13;5114726;28;20039;-77
2022/05/17 09:52:32;;;;;;;9.38;2.97;;;;;;;-149.78;58.05;49966.88;5113316;28;20484;-76
2022/05/17 09:55:13;;;;;;;14.48;3.20;;;;;;;-149.78;60.79;49951.25;5083531;28;20049;-76
2022/05/17 09:58:00;;;;;;;9.60;3.00;;;;;;;-149.78;61.00;49953.19;5055850;28;20037;-76
2022/05/17 10:00:27;;;;;;;13.93;3.42;;;;;;;-149.78;57.90;49949.28;5064326;28;20069;-76
2022/05/17 10:02:56;;;;;;;8.13;2.90;;;;;;;-149.78;55.13;49925.81;5093482;28;20032;-76
2022/05/17 10:05:28;;;;;;;10.88;2.80;;;;;;;-149.78;56.96;49939.50;5075854;28;20032;-76
2022/05/17 10:08:02;;;;;;;11.63;3.58;;;;;;;-149.78;59.27;49927.78;5092693;28;20036;-76
2022/05/17 10:10:37;;;;;;;13.77;3.30;;;;;;;-149.78;60.46;49951.25;5093665;28;20120;-76
2022/05/17 10:13:17;;;;;;;11.43;2.95;;;;;;;-149.78;59.78;49953.19;5093905;28;20027;-76
2022/05/17 10:15:46;;;;;;;11.05;3.28;;;;;;;-149.78;61.28;49951.25;5092595;28;20122;-76
2022/05/17 10:18:34;;;;;;;9.55;3.60;;;;;;;-149.78;62.37;49951.25;5093796;28;20544;-76
2022/05/17 10:21:33;;;;;;;15.23;3.58;;;;;;;-149.78;63.90;49982.53;5093720;28;20107;-77
2022/05/17 10:24:17;;;;;;;11.27;3.60;;;;;;;-149.78;60.79;49984.50;5092397;28;20142;-75
2022/05/17 10:26:53;;;;;;;9.77;3.20;;;;;;;-149.78;60.91;49962.97;5092389;28;20032;-76
2022/05/17 10:29:24;;;;;;;13.70;2.70;;;;;;;-149.78;65.27;49982.53;5091902;28;20036;-74
2022/05/17 10:31:57;;;;;;;12.40;2.88;;;;;;;-149.78;64.45;49970.78;5092118;28;20036;-76
2022/05/17 10:34:52;;;;;;;14.10;3.10;;;;;;;-149.78;66.54;50013.81;5075587;28;20174;-76
2022/05/17 10:37:21;;;;;;;12.13;3.10;;;;;;;-149.78;66.19;50021.63;5093459;28;20168;-77
2022/05/17 10:39:55;;;;;;;12.82;3.10;;;;;;;-149.78;68.39;50029.47;5092734;28;20398;-76
2022/05/17 10:42:22;;;;;;;8.50;2.85;;;;;;;-149.78;68.50;50035.34;5092690;28;20490;-75
2022/05/17 10:44:53;;;;;;;11.82;3.60;;;;;;;-149.78;69.36;50006.00;5075523;28;20043;-75
2022/05/17 10:47:39;;;;;;;11.63;3.22;;;;;;;-149.78;70.95;49998.19;5092223;28;20073;-75
2022/05/17 10:50:36;;;;;;;11.48;3.47;;;;;;;-149.78;69.16;50043.16;5093323;28;20081;-72
2022/05/17 10:53:39;;;;;;;13.98;2.45;;;;;;;-149.78;69.51;50041.19;5098389;27;20448;-72
2022/05/17 10:56:27;;;;;;;11.73;3.13;;;;;;;-149.78;71.08;50025.56;5133749;27;20098;-73
2022/05/17 10:59:01;;;;;;;12.90;3.25;;;;;;;-149.78;70.78;50043.16;5096362;28;20030;-73
2022/05/17 11:01:51;;;;;;;12.18;2.88;;;;;;;-149.78;67.30;50031.41;5126618;28;20038;-73
2022/05/17 11:04:57;;;;;;;10.48;2.80;;;;;;;-149.78;67.76;49998.19;5120333;28;20030;-75
2022/05/17 11:07:45;;;;;;;14.13;3.83;;;;;;;-149.78;67.00;50021.63;5093482;28;20027;-76
2022/05/17 11:10:20;;;;;;;12.45;3.10;;;;;;;-149.78;63.88;49978.63;5116299;28;20028;-73
2022/05/17 11:12:56;;;;;;;9.60;2.75;;;;;;;-149.78;64.92;50025.56;5100296;28;20031;-75
2022/05/17 11:15:32;;;;;;;9.18;2.90;;;;;;;-149.78;63.74;50000.13;5117576;28;20051;-76
2022/05/17 11:18:06;;;;;;;7.32;2.67;;;;;;;-149.78;62.37;50017.72;5093602;28;20043;-75
2022/05/17 11:21:01;;;;;;;14.02;3.20;;;;;;;-149.78;64.05;50021.63;5122766;28;20023;-75
2022/05/17 11:24:00;;;;;;;12.50;3.30;;;;;;;-149.78;66.02;49990.34;5119977;28;20039;-76
2022/05/17 11:26:38;;;;;;;7.88;3.08;;;;;;;-149.78;65.78;49998.19;5088239;28;20039;-76
2022/05/17 11:29:32;;;;;;;11.30;3.65;;;;;;;-149.78;66.15;50009.91;5123470;28;20027;-76
2022/05/17 11:32:00;;;;;;;11.98;4.03;;;;;;;-149.78;66.46;50041.19;5093458;28;20047;-77